sensor_id;sensor_type;location;lat;lon;timestamp;temperature;humidity
52439;DHT22;73188;52.948;6.012;2024-01-27T00:05:22;8.30;99.90
52439;DHT22;73188;52.948;6.012;2024-01-27T00:15:48;8.70;99.90
52439;DHT22;73188;52.948;6.012;2024-01-27T00:26:14;9.40;99.90
52439;DHT22;73188;52.948;6.012;2024-01-27T00:36:39;8.40;99.90
52439;DHT22;73188;52.948;6.012;2024-01-27T00:47:06;8.30;99.90
52439;DHT22;73188;52.948;6.012;2024-01-27T00:57:32;8.30;99.90
52439;DHT22;73188;52.948;6.012;2024-01-27T01:07:57;8.40;99.90
52439;DHT22;73188;52.948;6.012;2024-01-27T01:18:23;8.30;99.90
52439;DHT22;73188;52.948;6.012;2024-01-27T01:28:49;8.40;99.90
52439;DHT22;73188;52.948;6.012;2024-01-27T01:39:15;9.40;99.90
52439;DHT22;73188;52.948;6.012;2024-01-27T01:49:41;8.30;99.90
52439;DHT22;73188;52.948;6.012;2024-01-27T02:00:07;8.20;99.90
52439;DHT22;73188;52.948;6.012;2024-01-27T02:10:33;8.10;99.90
52439;DHT22;73188;52.948;6.012;2024-01-27T02:21:02;8.20;99.90
52439;DHT22;73188;52.948;6.012;2024-01-27T02:31:28;8.00;99.90
52439;DHT22;73188;52.948;6.012;2024-01-27T02:41:54;8.50;99.90
52439;DHT22;73188;52.948;6.012;2024-01-27T02:52:19;7.80;99.90
52439;DHT22;73188;52.948;6.012;2024-01-27T03:02:45;8.40;99.90
52439;DHT22;73188;52.948;6.012;2024-01-27T03:13:11;8.40;99.90
52439;DHT22;73188;52.948;6.012;2024-01-27T03:23:37;7.30;99.90
52439;DHT22;73188;52.948;6.012;2024-01-27T03:34:03;7.20;99.90
52439;DHT22;73188;52.948;6.012;2024-01-27T03:44:29;7.20;99.90
52439;DHT22;73188;52.948;6.012;2024-01-27T03:54:54;7.30;99.90
52439;DHT22;73188;52.948;6.012;2024-01-27T04:05:20;7.40;99.90
52439;DHT22;73188;52.948;6.012;2024-01-27T04:15:46;7.50;99.90
52439;DHT22;73188;52.948;6.012;2024-01-27T04:26:12;7.60;99.90
52439;DHT22;73188;52.948;6.012;2024-01-27T04:36:38;8.30;99.90
52439;DHT22;73188;52.948;6.012;2024-01-27T04:47:04;7.80;99.90
52439;DHT22;73188;52.948;6.012;2024-01-27T04:57:29;9.20;99.90
52439;DHT22;73188;52.948;6.012;2024-01-27T05:07:55;7.90;99.90
52439;DHT22;73188;52.948;6.012;2024-01-27T05:18:21;8.10;99.90
52439;DHT22;73188;52.948;6.012;2024-01-27T05:28:47;8.30;99.90
52439;DHT22;73188;52.948;6.012;2024-01-27T05:39:13;8.50;99.90
52439;DHT22;73188;52.948;6.012;2024-01-27T05:49:39;8.40;99.90
52439;DHT22;73188;52.948;6.012;2024-01-27T06:00:06;8.40;99.90
52439;DHT22;73188;52.948;6.012;2024-01-27T06:10:34;8.60;99.90
52439;DHT22;73188;52.948;6.012;2024-01-27T06:21:04;8.70;99.90
52439;DHT22;73188;52.948;6.012;2024-01-27T06:31:30;8.70;99.90
52439;DHT22;73188;52.948;6.012;2024-01-27T06:41:56;8.50;99.90
52439;DHT22;73188;52.948;6.012;2024-01-27T06:52:22;8.40;99.90
52439;DHT22;73188;52.948;6.012;2024-01-27T07:02:48;8.00;99.90
52439;DHT22;73188;52.948;6.012;2024-01-27T07:13:13;7.90;99.90
52439;DHT22;73188;52.948;6.012;2024-01-27T07:23:41;7.90;99.90
52439;DHT22;73188;52.948;6.012;2024-01-27T07:34:07;8.00;99.90
52439;DHT22;73188;52.948;6.012;2024-01-27T07:44:34;8.20;99.90
52439;DHT22;73188;52.948;6.012;2024-01-27T07:55:00;8.30;99.90
52439;DHT22;73188;52.948;6.012;2024-01-27T08:05:25;8.90;99.90
52439;DHT22;73188;52.948;6.012;2024-01-27T08:15:51;8.50;99.90
52439;DHT22;73188;52.948;6.012;2024-01-27T08:26:17;8.80;99.90
52439;DHT22;73188;52.948;6.012;2024-01-27T08:36:46;10.60;99.90
52439;DHT22;73188;52.948;6.012;2024-01-27T08:47:11;9.30;99.90
52439;DHT22;73188;52.948;6.012;2024-01-27T08:57:37;9.50;99.90
52439;DHT22;73188;52.948;6.012;2024-01-27T09:08:03;9.70;99.90
52439;DHT22;73188;52.948;6.012;2024-01-27T09:18:29;10.10;99.90
52439;DHT22;73188;52.948;6.012;2024-01-27T09:28:56;10.40;99.90
52439;DHT22;73188;52.948;6.012;2024-01-27T10:00:45;14.00;99.90
52439;DHT22;73188;52.948;6.012;2024-01-27T10:11:23;13.70;99.90
52439;DHT22;73188;52.948;6.012;2024-01-27T10:22:00;14.20;99.90
52439;DHT22;73188;52.948;6.012;2024-01-27T10:32:27;15.20;99.90
52439;DHT22;73188;52.948;6.012;2024-01-27T10:43:03;16.80;99.90
52439;DHT22;73188;52.948;6.012;2024-01-27T10:53:31;17.00;99.90
52439;DHT22;73188;52.948;6.012;2024-01-27T11:04:03;18.80;99.90
52439;DHT22;73188;52.948;6.012;2024-01-27T11:14:29;17.30;99.90
52439;DHT22;73188;52.948;6.012;2024-01-27T11:25:07;18.10;99.90
52439;DHT22;73188;52.948;6.012;2024-01-27T11:35:34;18.20;99.90
52439;DHT22;73188;52.948;6.012;2024-01-27T11:46:01;19.40;99.90
52439;DHT22;73188;52.948;6.012;2024-01-27T11:56:27;18.00;99.90
52439;DHT22;73188;52.948;6.012;2024-01-27T12:06:53;19.30;99.90
52439;DHT22;73188;52.948;6.012;2024-01-27T12:17:20;19.30;99.90
52439;DHT22;73188;52.948;6.012;2024-01-27T12:27:47;18.30;99.90
52439;DHT22;73188;52.948;6.012;2024-01-27T12:38:13;19.80;99.90
52439;DHT22;73188;52.948;6.012;2024-01-27T12:48:39;17.80;99.90
52439;DHT22;73188;52.948;6.012;2024-01-27T12:59:04;16.10;99.90
52439;DHT22;73188;52.948;6.012;2024-01-27T13:09:31;14.00;99.90
52439;DHT22;73188;52.948;6.012;2024-01-27T13:19:57;13.60;99.90
52439;DHT22;73188;52.948;6.012;2024-01-27T13:30:23;12.90;99.90
52439;DHT22;73188;52.948;6.012;2024-01-27T13:40:50;12.60;99.90
52439;DHT22;73188;52.948;6.012;2024-01-27T13:51:15;12.30;99.90
52439;DHT22;73188;52.948;6.012;2024-01-27T14:01:41;12.30;99.90
52439;DHT22;73188;52.948;6.012;2024-01-27T14:12:07;11.90;99.90
52439;DHT22;73188;52.948;6.012;2024-01-27T14:22:33;11.80;99.90
52439;DHT22;73188;52.948;6.012;2024-01-27T14:32:59;11.40;99.90
52439;DHT22;73188;52.948;6.012;2024-01-27T14:43:25;11.30;99.90
52439;DHT22;73188;52.948;6.012;2024-01-27T14:53:52;11.10;99.90
52439;DHT22;73188;52.948;6.012;2024-01-27T15:04:18;11.00;99.90
52439;DHT22;73188;52.948;6.012;2024-01-27T15:14:44;10.90;99.90
52439;DHT22;73188;52.948;6.012;2024-01-27T15:25:10;10.60;99.90
52439;DHT22;73188;52.948;6.012;2024-01-27T15:35:36;10.40;99.90
52439;DHT22;73188;52.948;6.012;2024-01-27T15:46:02;10.10;99.90
52439;DHT22;73188;52.948;6.012;2024-01-27T15:56:30;9.80;99.90
52439;DHT22;73188;52.948;6.012;2024-01-27T16:06:56;9.50;99.90
52439;DHT22;73188;52.948;6.012;2024-01-27T16:17:22;9.20;99.90
52439;DHT22;73188;52.948;6.012;2024-01-27T16:27:48;9.00;99.90
52439;DHT22;73188;52.948;6.012;2024-01-27T16:38:14;8.90;99.90
52439;DHT22;73188;52.948;6.012;2024-01-27T16:48:40;8.90;99.90
52439;DHT22;73188;52.948;6.012;2024-01-27T16:59:06;8.70;99.90
52439;DHT22;73188;52.948;6.012;2024-01-27T17:09:33;8.60;99.90
52439;DHT22;73188;52.948;6.012;2024-01-27T17:20:00;8.50;99.90
52439;DHT22;73188;52.948;6.012;2024-01-27T17:30:27;8.40;99.90
52439;DHT22;73188;52.948;6.012;2024-01-27T17:40:53;8.30;99.90
52439;DHT22;73188;52.948;6.012;2024-01-27T17:51:19;8.20;99.90
52439;DHT22;73188;52.948;6.012;2024-01-27T18:01:45;8.00;99.90
52439;DHT22;73188;52.948;6.012;2024-01-27T18:12:11;7.90;99.90
52439;DHT22;73188;52.948;6.012;2024-01-27T18:22:37;7.90;99.90
52439;DHT22;73188;52.948;6.012;2024-01-27T18:33:03;7.60;99.90
52439;DHT22;73188;52.948;6.012;2024-01-27T18:43:29;7.40;99.90
52439;DHT22;73188;52.948;6.012;2024-01-27T18:53:55;7.30;99.90
52439;DHT22;73188;52.948;6.012;2024-01-27T19:04:21;7.20;99.90
52439;DHT22;73188;52.948;6.012;2024-01-27T19:14:47;7.10;99.90
52439;DHT22;73188;52.948;6.012;2024-01-27T19:25:13;7.10;99.90
52439;DHT22;73188;52.948;6.012;2024-01-27T19:35:39;7.10;99.90
52439;DHT22;73188;52.948;6.012;2024-01-27T19:46:05;7.30;99.90
52439;DHT22;73188;52.948;6.012;2024-01-27T19:56:31;7.10;99.90
52439;DHT22;73188;52.948;6.012;2024-01-27T20:06:57;7.10;99.90
52439;DHT22;73188;52.948;6.012;2024-01-27T20:17:24;7.20;99.90
52439;DHT22;73188;52.948;6.012;2024-01-27T20:27:50;7.10;99.90
52439;DHT22;73188;52.948;6.012;2024-01-27T20:38:16;7.10;99.90
52439;DHT22;73188;52.948;6.012;2024-01-27T20:48:41;7.00;99.90
52439;DHT22;73188;52.948;6.012;2024-01-27T20:59:07;7.10;99.90
52439;DHT22;73188;52.948;6.012;2024-01-27T21:09:34;7.10;99.90
52439;DHT22;73188;52.948;6.012;2024-01-27T21:20:00;7.00;99.90
52439;DHT22;73188;52.948;6.012;2024-01-27T21:30:28;6.70;99.90
52439;DHT22;73188;52.948;6.012;2024-01-27T21:40:57;6.50;99.90
52439;DHT22;73188;52.948;6.012;2024-01-27T21:51:23;6.50;99.90
52439;DHT22;73188;52.948;6.012;2024-01-27T22:01:50;6.40;99.90
52439;DHT22;73188;52.948;6.012;2024-01-27T22:12:16;6.30;99.90
52439;DHT22;73188;52.948;6.012;2024-01-27T22:22:43;6.40;99.90
52439;DHT22;73188;52.948;6.012;2024-01-27T22:33:09;6.30;99.90
52439;DHT22;73188;52.948;6.012;2024-01-27T22:43:38;6.30;99.90
52439;DHT22;73188;52.948;6.012;2024-01-27T22:54:04;6.30;99.90
52439;DHT22;73188;52.948;6.012;2024-01-27T23:04:30;6.40;99.90
52439;DHT22;73188;52.948;6.012;2024-01-27T23:14:56;6.20;99.90
52439;DHT22;73188;52.948;6.012;2024-01-27T23:25:22;6.00;99.90
52439;DHT22;73188;52.948;6.012;2024-01-27T23:35:48;5.90;99.90
52439;DHT22;73188;52.948;6.012;2024-01-27T23:46:20;5.90;99.90
52439;DHT22;73188;52.948;6.012;2024-01-27T23:56:46;5.60;99.90
